Time;durP1;ratioP1;P1;durP2;ratioP2;P2;SDS_P1;SDS_P2;PMS_P1;PMS_P2;Temp;Humidity;BMP_temperature;BMP_pressure;BME280_temperature;BME280_humidity;BME280_pressure;Samples;Min_cycle;Max_cycle;Signal;HPM_P1;HPM_P2
2021/03/13 00:00:49;;;;;;;1.27;0.33;;;6.60;88.60;;;;;;6251422;22;20501;-78
2021/03/13 00:03:16;;;;;;;1.47;0.30;;;6.60;88.60;;;;;;6252327;22;20069;-76
2021/03/13 00:05:44;;;;;;;1.50;0.20;;;6.70;88.70;;;;;;6251097;22;20058;-78
2021/03/13 00:08:11;;;;;;;0.47;0.20;;;6.70;88.50;;;;;;6251934;22;20004;-77
2021/03/13 00:10:38;;;;;;;0.97;0.23;;;6.70;88.50;;;;;;6278461;22;20434;-77
2021/03/13 00:13:05;;;;;;;1.07;0.40;;;6.70;88.60;;;;;;6250981;22;20000;-78
2021/03/13 00:15:31;;;;;;;1.00;0.33;;;6.70;88.60;;;;;;6249942;22;20030;-78
2021/03/13 00:18:00;;;;;;;1.40;0.20;;;6.70;88.60;;;;;;6278054;22;20031;-77
2021/03/13 00:20:28;;;;;;;0.97;0.40;;;6.70;89.50;;;;;;6278592;22;19992;-77
2021/03/13 00:22:55;;;;;;;1.90;0.33;;;6.70;89.00;;;;;;6251033;22;20487;-77
2021/03/13 00:25:22;;;;;;;1.37;0.33;;;6.70;89.50;;;;;;6251098;22;20438;-77
2021/03/13 00:27:48;;;;;;;1.30;0.47;;;6.70;90.00;;;;;;6250999;22;20026;-77
2021/03/13 00:30:25;;;;;;;3.37;0.57;;;6.80;90.00;;;;;;6251145;22;20000;-77
2021/03/13 00:32:53;;;;;;;0.50;0.23;;;6.80;90.10;;;;;;6250976;22;20012;-77
2021/03/13 00:35:19;;;;;;;1.30;0.50;;;6.80;90.30;;;;;;6251383;22;20016;-77
2021/03/13 00:37:48;;;;;;;1.37;0.50;;;6.90;90.00;;;;;;6250886;22;20003;-77
2021/03/13 00:40:15;;;;;;;1.83;0.30;;;6.90;90.00;;;;;;6251152;22;20010;-78
2021/03/13 00:42:42;;;;;;;0.87;0.40;;;7.00;89.90;;;;;;6251552;22;20326;-78
2021/03/13 00:45:14;;;;;;;0.90;0.30;;;7.00;89.60;;;;;;6251011;22;20082;-77
2021/03/13 00:47:40;;;;;;;3.35;0.43;;;7.00;89.70;;;;;;6250987;22;20007;-76
2021/03/13 00:50:07;;;;;;;0.77;0.30;;;7.10;89.40;;;;;;6277456;22;20006;-76
2021/03/13 00:52:33;;;;;;;1.53;0.37;;;7.10;88.90;;;;;;6250988;22;20012;-76
2021/03/13 00:54:59;;;;;;;2.10;0.30;;;7.20;88.50;;;;;;6250472;22;20061;-75
2021/03/13 00:57:25;;;;;;;0.20;0.10;;;7.30;88.50;;;;;;6251125;22;20003;-75
2021/03/13 00:59:51;;;;;;;1.27;0.27;;;7.30;87.50;;;;;;6250044;22;20362;-75
2021/03/13 01:02:17;;;;;;;1.77;0.40;;;7.30;86.90;;;;;;6250640;22;20457;-76
2021/03/13 01:04:42;;;;;;;2.47;0.30;;;7.30;87.10;;;;;;6250422;22;20007;-80
2021/03/13 01:07:08;;;;;;;0.70;0.20;;;7.30;87.20;;;;;;6250733;22;20011;-76
2021/03/13 01:09:35;;;;;;;1.73;0.30;;;7.30;87.20;;;;;;6250557;22;20000;-76
2021/03/13 01:12:02;;;;;;;1.30;0.10;;;7.40;87.10;;;;;;6277479;22;20000;-76
2021/03/13 01:14:28;;;;;;;0.50;0.20;;;7.40;86.60;;;;;;6250997;22;20008;-78
2021/03/13 01:16:54;;;;;;;1.40;0.20;;;7.40;86.20;;;;;;6277027;22;19996;-76
2021/03/13 01:19:21;;;;;;;0.50;0.30;;;7.40;86.40;;;;;;6277852;22;19992;-75
2021/03/13 01:21:46;;;;;;;1.33;0.20;;;7.40;86.40;;;;;;6276175;22;20000;-77
2021/03/13 01:24:12;;;;;;;2.17;0.20;;;7.40;86.50;;;;;;6250717;22;20308;-76
2021/03/13 01:26:38;;;;;;;1.57;0.20;;;7.40;86.50;;;;;;6250850;22;20361;-76
2021/03/13 01:29:05;;;;;;;1.03;0.30;;;7.50;86.60;;;;;;6277853;22;19999;-76
2021/03/13 01:31:30;;;;;;;0.53;0.20;;;7.40;86.50;;;;;;6249892;22;19999;-77
2021/03/13 01:33:56;;;;;;;1.47;0.37;;;7.50;86.70;;;;;;6277529;22;19996;-76
2021/03/13 01:36:21;;;;;;;3.87;0.50;;;7.40;86.80;;;;;;6250666;22;20106;-76
2021/03/13 01:38:47;;;;;;;2.00;0.30;;;7.40;87.20;;;;;;6250090;22;20000;-76
2021/03/13 01:41:13;;;;;;;2.77;0.30;;;7.40;86.90;;;;;;6277450;22;19999;-76
2021/03/13 01:43:39;;;;;;;0.70;0.20;;;7.40;87.20;;;;;;6249954;22;20000;-75
2021/03/13 01:46:05;;;;;;;1.23;0.20;;;7.40;86.70;;;;;;6249751;22;19996;-76
2021/03/13 01:48:41;;;;;;;2.37;0.20;;;7.40;87.80;;;;;;6250832;22;20015;-77
2021/03/13 01:51:07;;;;;;;5.23;0.30;;;7.40;88.50;;;;;;6250553;22;20319;-76
2021/03/13 01:53:33;;;;;;;1.13;0.20;;;7.40;89.20;;;;;;6250838;22;20010;-78
2021/03/13 01:55:59;;;;;;;0.97;0.40;;;7.40;89.70;;;;;;6276865;22;20090;-76
2021/03/13 01:58:25;;;;;;;3.60;0.50;;;7.30;90.00;;;;;;6251145;22;19995;-77
2021/03/13 02:00:51;;;;;;;4.17;0.50;;;7.30;90.20;;;;;;6250404;22;20011;-76
2021/03/13 02:03:17;;;;;;;1.97;0.60;;;7.30;90.20;;;;;;6250439;22;20026;-76
2021/03/13 02:05:45;;;;;;;3.27;0.40;;;7.30;90.10;;;;;;6276865;22;20410;-76
2021/03/13 02:08:38;;;;;;;4.53;0.80;;;7.30;90.10;;;;;;6250568;22;20008;-76
2021/03/13 02:11:18;;;;;;;3.33;0.77;;;7.30;90.20;;;;;;6249588;22;20014;-76
2021/03/13 02:14:08;;;;;;;1.67;0.50;;;7.40;90.00;;;;;;6276802;22;20003;-76
2021/03/13 02:16:59;;;;;;;5.30;1.13;;;7.40;90.10;;;;;;6277474;22;19996;-77
2021/03/13 02:20:00;;;;;;;1.70;0.30;;;7.40;90.10;;;;;;6277463;22;20431;-78
2021/03/13 02:22:30;;;;;;;3.63;0.70;;;7.40;90.00;;;;;;6250050;22;20054;-76
2021/03/13 02:25:07;;;;;;;4.00;0.63;;;7.40;89.60;;;;;;6276627;22;20012;-76
2021/03/13 02:27:45;;;;;;;2.13;0.40;;;7.40;89.40;;;;;;6250197;22;20011;-77
2021/03/13 02:30:20;;;;;;;3.97;0.60;;;7.40;89.30;;;;;;6250291;22;20091;-77
2021/03/13 02:33:15;;;;;;;3.73;0.70;;;7.40;88.90;;;;;;6249539;22;20427;-77
2021/03/13 02:35:44;;;;;;;3.53;0.50;;;7.40;89.30;;;;;;6249694;22;20015;-77
2021/03/13 02:38:16;;;;;;;1.17;0.50;;;7.40;88.80;;;;;;6250853;22;20007;-76
2021/03/13 02:40:45;;;;;;;1.48;0.55;;;7.50;88.40;;;;;;6250227;22;20026;-76
2021/03/13 02:43:13;;;;;;;4.60;0.60;;;7.50;88.90;;;;;;6250164;22;20327;-77
2021/03/13 02:45:44;;;;;;;5.03;0.83;;;7.50;88.10;;;;;;6277156;22;20358;-76
2021/03/13 02:48:13;;;;;;;3.43;0.80;;;7.50;87.20;;;;;;6277004;22;20053;-76
2021/03/13 02:50:40;;;;;;;6.87;0.73;;;7.60;87.30;;;;;;6276792;22;19995;-76
2021/03/13 02:53:08;;;;;;;2.33;0.50;;;7.60;86.20;;;;;;6249585;22;20312;-76
2021/03/13 02:55:34;;;;;;;2.90;0.40;;;7.70;86.30;;;;;;6249957;22;20137;-77
2021/03/13 02:58:02;;;;;;;3.30;0.80;;;7.70;85.80;;;;;;6249859;22;20082;-76
2021/03/13 03:00:33;;;;;;;4.63;0.70;;;7.70;85.00;;;;;;6276921;22;20422;-76
2021/03/13 03:02:59;;;;;;;5.43;0.60;;;7.80;84.50;;;;;;6249796;22;20059;-76
2021/03/13 03:05:27;;;;;;;2.57;0.73;;;7.90;83.70;;;;;;6276528;22;20392;-76
2021/03/13 03:07:55;;;;;;;1.57;0.50;;;7.90;83.10;;;;;;6249313;22;20003;-76
2021/03/13 03:10:25;;;;;;;5.70;1.23;;;8.00;82.60;;;;;;6249989;22;20004;-75
2021/03/13 03:12:51;;;;;;;1.27;0.43;;;8.00;82.30;;;;;;6249089;22;20007;-75
2021/03/13 03:15:22;;;;;;;2.90;0.67;;;8.00;82.20;;;;;;6276272;22;20000;-75
2021/03/13 03:17:49;;;;;;;1.85;0.35;;;8.10;81.70;;;;;;6248543;22;20007;-77
2021/03/13 03:20:15;;;;;;;3.43;0.40;;;8.10;81.60;;;;;;6249321;22;20050;-77
2021/03/13 03:22:40;;;;;;;3.07;0.53;;;8.10;81.30;;;;;;6276382;22;19999;-76
2021/03/13 03:25:08;;;;;;;4.23;0.60;;;8.10;82.00;;;;;;6248859;22;20483;-76
2021/03/13 03:27:49;;;;;;;3.47;0.40;;;8.20;82.10;;;;;;6249217;22;20457;-77
2021/03/13 03:30:36;;;;;;;6.57;0.60;;;8.10;82.80;;;;;;6249642;22;19996;-77
2021/03/13 03:33:03;;;;;;;2.70;0.47;;;8.10;83.40;;;;;;6274743;22;20252;-76
2021/03/13 03:35:30;;;;;;;1.43;0.40;;;8.10;83.00;;;;;;6276047;22;20026;-77
2021/03/13 03:37:59;;;;;;;3.70;0.53;;;8.10;83.20;;;;;;6275626;22;20019;-76
2021/03/13 03:40:26;;;;;;;4.60;0.80;;;8.10;83.40;;;;;;6276402;22;19999;-77
2021/03/13 03:43:10;;;;;;;1.87;0.50;;;8.10;83.30;;;;;;6248777;22;20019;-77
2021/03/13 03:45:36;;;;;;;5.67;0.50;;;8.10;83.40;;;;;;6275906;22;19999;-76
2021/03/13 03:48:06;;;;;;;3.10;0.57;;;8.10;82.90;;;;;;6248820;22;20019;-76
2021/03/13 03:50:33;;;;;;;2.27;0.43;;;8.00;83.40;;;;;;6249348;22;20091;-77
2021/03/13 03:53:00;;;;;;;3.93;0.70;;;8.00;83.20;;;;;;6248707;22;20004;-76
2021/03/13 03:55:27;;;;;;;0.70;0.30;;;8.00;83.40;;;;;;6276110;22;20123;-77
2021/03/13 03:57:54;;;;;;;3.30;0.47;;;8.00;83.70;;;;;;6275548;22;20446;-76
2021/03/13 04:00:21;;;;;;;1.27;0.30;;;8.00;82.90;;;;;;6249128;22;20423;-77
2021/03/13 04:02:47;;;;;;;1.80;0.30;;;8.00;83.40;;;;;;6248548;22;20004;-78
2021/03/13 04:05:16;;;;;;;2.77;0.60;;;8.00;83.30;;;;;;6218833;23;20020;-77
2021/03/13 04:07:42;;;;;;;2.40;0.50;;;8.00;83.10;;;;;;6245514;23;20011;-77
2021/03/13 04:10:09;;;;;;;1.87;0.47;;;8.00;83.50;;;;;;6218018;23;20012;-76
2021/03/13 04:12:38;;;;;;;2.47;0.50;;;8.00;83.30;;;;;;6245703;23;20000;-77
2021/03/13 04:15:14;;;;;;;3.80;0.73;;;8.00;83.60;;;;;;6218508;23;20005;-77
2021/03/13 04:17:40;;;;;;;3.00;0.60;;;7.90;84.00;;;;;;6218710;23;20011;-76
2021/03/13 04:20:08;;;;;;;2.27;0.83;;;7.90;83.50;;;;;;6217984;23;20156;-76
2021/03/13 04:22:36;;;;;;;3.33;0.50;;;8.00;84.30;;;;;;6193635;23;20092;-77
2021/03/13 04:25:05;;;;;;;3.00;0.70;;;7.90;84.30;;;;;;6218499;23;20523;-76
2021/03/13 04:27:31;;;;;;;4.53;0.63;;;7.90;84.90;;;;;;6245530;23;20022;-78
2021/03/13 04:29:57;;;;;;;3.87;0.50;;;7.90;84.70;;;;;;6218732;23;20075;-77
2021/03/13 04:32:23;;;;;;;2.03;0.53;;;7.90;84.50;;;;;;6246034;23;19992;-78
2021/03/13 04:34:51;;;;;;;4.00;0.50;;;7.80;84.10;;;;;;6218465;23;20424;-77
2021/03/13 04:37:17;;;;;;;1.57;0.30;;;7.90;83.50;;;;;;6219212;23;20006;-77
2021/03/13 04:39:46;;;;;;;4.43;0.80;;;7.90;83.20;;;;;;6220639;23;20010;-77
2021/03/13 04:42:12;;;;;;;1.07;0.23;;;7.90;83.20;;;;;;6246741;23;19996;-76
2021/03/13 04:44:38;;;;;;;3.43;0.40;;;7.90;82.70;;;;;;6247653;23;20005;-76
2021/03/13 04:47:04;;;;;;;0.90;0.40;;;7.90;82.30;;;;;;6219889;23;20027;-76
2021/03/13 04:49:30;;;;;;;2.93;0.40;;;7.90;82.20;;;;;;6220999;23;20015;-77
2021/03/13 04:52:00;;;;;;;2.37;0.40;;;8.00;81.70;;;;;;6219603;23;20000;-77
2021/03/13 04:54:29;;;;;;;2.87;0.50;;;8.00;81.40;;;;;;6247378;23;20113;-76
2021/03/13 04:56:55;;;;;;;6.17;0.97;;;8.00;81.10;;;;;;6219797;23;20011;-77
2021/03/13 04:59:21;;;;;;;2.27;0.30;;;8.10;81.10;;;;;;6247832;23;20075;-77
2021/03/13 05:01:47;;;;;;;3.40;0.40;;;8.00;81.20;;;;;;6220563;23;20000;-83
2021/03/13 05:04:13;;;;;;;3.70;0.50;;;8.10;80.40;;;;;;6220503;23;20008;-78
2021/03/13 05:06:39;;;;;;;3.07;0.30;;;8.10;80.00;;;;;;6246603;23;20340;-77
2021/03/13 05:09:05;;;;;;;2.23;0.27;;;8.10;80.10;;;;;;6220162;23;20032;-77
2021/03/13 05:11:32;;;;;;;2.00;0.30;;;8.10;80.30;;;;;;6247710;23;20011;-77
2021/03/13 05:13:59;;;;;;;4.30;0.53;;;8.10;80.00;;;;;;6246613;23;20000;-76
2021/03/13 05:16:25;;;;;;;3.43;0.40;;;8.10;79.90;;;;;;6220446;23;20435;-77
2021/03/13 05:18:50;;;;;;;3.27;0.40;;;8.20;79.80;;;;;;6246046;23;20002;-78
2021/03/13 05:21:17;;;;;;;3.37;0.40;;;8.10;79.60;;;;;;6220393;23;20008;-77
2021/03/13 05:23:44;;;;;;;2.30;0.33;;;8.20;79.10;;;;;;6246712;23;20079;-77
2021/03/13 05:26:09;;;;;;;2.20;0.37;;;8.20;78.50;;;;;;6246575;23;20103;-77
2021/03/13 05:28:35;;;;;;;2.43;0.40;;;8.20;78.40;;;;;;6246907;23;20444;-76
2021/03/13 05:31:01;;;;;;;1.37;0.30;;;8.20;78.10;;;;;;6246495;23;20004;-77
2021/03/13 05:33:26;;;;;;;3.27;0.80;;;8.30;78.10;;;;;;6220431;23;20083;-77
2021/03/13 05:35:52;;;;;;;3.97;0.40;;;8.30;78.20;;;;;;6219506;23;20004;-77
2021/03/13 05:38:18;;;;;;;2.97;0.30;;;8.30;78.20;;;;;;6219892;23;20004;-77
2021/03/13 05:40:43;;;;;;;1.43;0.83;;;8.30;78.10;;;;;;6220183;23;20004;-76
2021/03/13 05:43:12;;;;;;;4.60;0.70;;;8.30;77.80;;;;;;6219355;23;20075;-76
2021/03/13 05:45:40;;;;;;;4.30;0.50;;;8.20;77.80;;;;;;6220123;23;20335;-77
2021/03/13 05:48:08;;;;;;;2.67;0.40;;;8.20;77.30;;;;;;6219381;23;20051;-76
2021/03/13 05:50:35;;;;;;;2.93;0.50;;;8.30;77.50;;;;;;6220022;23;20015;-77
2021/03/13 05:53:03;;;;;;;4.50;0.40;;;8.20;77.70;;;;;;6219638;23;20012;-77
2021/03/13 05:55:29;;;;;;;1.43;0.50;;;8.20;77.00;;;;;;6219824;23;20000;-76
2021/03/13 05:57:55;;;;;;;2.60;0.20;;;8.20;76.70;;;;;;6218921;23;20068;-76
2021/03/13 06:00:22;;;;;;;3.53;0.50;;;8.30;76.80;;;;;;6219868;23;20031;-77
2021/03/13 06:02:48;;;;;;;1.87;0.30;;;8.30;76.00;;;;;;6246310;23;20301;-77
2021/03/13 06:05:15;;;;;;;3.33;0.90;;;8.30;76.50;;;;;;6219347;23;20008;-76
2021/03/13 06:07:42;;;;;;;1.23;0.30;;;8.30;76.10;;;;;;6245231;23;20039;-77
2021/03/13 06:10:09;;;;;;;2.60;0.73;;;8.40;75.90;;;;;;6245460;23;20197;-76
2021/03/13 06:12:34;;;;;;;3.13;0.40;;;8.40;75.90;;;;;;6218996;23;20047;-76
2021/03/13 06:15:00;;;;;;;2.50;0.60;;;8.50;75.60;;;;;;6245434;23;20359;-76
2021/03/13 06:17:26;;;;;;;2.57;0.60;;;8.50;75.10;;;;;;6246249;23;20008;-77
2021/03/13 06:19:53;;;;;;;2.40;0.50;;;8.50;75.30;;;;;;6245738;23;20004;-77
2021/03/13 06:22:36;;;;;;;3.13;0.30;;;8.50;74.90;;;;;;6219817;23;20327;-77
2021/03/13 06:25:13;;;;;;;3.45;0.70;;;8.60;74.30;;;;;;6218684;23;20000;-77
2021/03/13 06:27:47;;;;;;;3.73;0.40;;;8.60;73.70;;;;;;6219517;23;20451;-77
2021/03/13 06:30:14;;;;;;;2.97;0.50;;;8.60;73.70;;;;;;6218985;23;20093;-77
2021/03/13 06:32:41;;;;;;;5.77;0.53;;;8.70;73.80;;;;;;6219589;23;20003;-76
2021/03/13 06:35:21;;;;;;;2.22;0.40;;;8.70;72.70;;;;;;6219172;23;20004;-77
2021/03/13 06:37:48;;;;;;;4.43;0.43;;;8.80;72.60;;;;;;6219466;23;20010;-78
2021/03/13 06:40:33;;;;;;;2.20;0.40;;;8.90;71.60;;;;;;6219462;23;20024;-77
2021/03/13 06:43:00;;;;;;;2.30;0.40;;;8.90;71.60;;;;;;6219024;23;20078;-77
2021/03/13 06:45:27;;;;;;;3.43;0.30;;;9.00;71.20;;;;;;6219698;23;20008;-77
2021/03/13 06:47:53;;;;;;;1.60;0.35;;;9.00;71.00;;;;;;6244834;23;20031;-78
2021/03/13 06:50:21;;;;;;;2.67;0.63;;;9.00;70.80;;;;;;6219499;23;20431;-77
2021/03/13 06:53:06;;;;;;;2.40;0.50;;;9.10;70.00;;;;;;6219372;23;20000;-78
2021/03/13 06:55:32;;;;;;;6.00;0.87;;;9.10;70.00;;;;;;6219322;23;20036;-78
2021/03/13 06:58:10;;;;;;;1.55;0.40;;;9.20;69.80;;;;;;6218938;23;20011;-77
2021/03/13 07:00:37;;;;;;;1.73;0.60;;;9.30;69.20;;;;;;6218924;23;20373;-77
2021/03/13 07:03:10;;;;;;;3.30;0.40;;;9.30;69.50;;;;;;6218310;23;20091;-77
2021/03/13 07:05:37;;;;;;;2.50;0.30;;;9.40;69.00;;;;;;6218579;23;20007;-77
2021/03/13 07:08:28;;;;;;;2.67;0.40;;;9.30;68.30;;;;;;6245417;23;20000;-77
2021/03/13 07:11:15;;;;;;;2.45;0.50;;;9.40;68.10;;;;;;6218476;23;19996;-76
2021/03/13 07:13:46;;;;;;;2.10;0.50;;;9.40;68.50;;;;;;6218996;23;20004;-77
2021/03/13 07:16:26;;;;;;;3.05;0.50;;;9.50;68.20;;;;;;6245591;23;20465;-77
2021/03/13 07:19:12;;;;;;;1.83;0.40;;;9.50;68.30;;;;;;6218086;23;20339;-78
2021/03/13 07:21:40;;;;;;;3.37;0.63;;;9.50;68.30;;;;;;6218182;23;20015;-77
2021/03/13 07:24:13;;;;;;;2.75;0.38;;;9.50;68.50;;;;;;6245461;23;20004;-77
2021/03/13 07:26:43;;;;;;;3.25;0.65;;;9.40;68.10;;;;;;6219182;23;20004;-77
2021/03/13 07:29:11;;;;;;;3.70;0.47;;;9.40;68.20;;;;;;6218258;23;19996;-76
2021/03/13 07:31:40;;;;;;;3.90;0.67;;;9.40;68.70;;;;;;6245407;23;20446;-77
2021/03/13 07:34:17;;;;;;;5.55;0.40;;;9.40;69.10;;;;;;6218202;23;20034;-77
2021/03/13 07:36:44;;;;;;;2.67;0.40;;;9.40;69.10;;;;;;6218623;23;20004;-77
2021/03/13 07:39:23;;;;;;;1.73;0.52;;;9.40;69.30;;;;;;6245498;23;20100;-77
2021/03/13 07:41:58;;;;;;;4.05;0.55;;;9.40;68.50;;;;;;6219013;23;19997;-77
2021/03/13 07:44:24;;;;;;;3.22;0.57;;;9.50;68.00;;;;;;6218669;23;20312;-78
2021/03/13 07:46:50;;;;;;;3.80;0.50;;;9.50;68.20;;;;;;6218802;23;20004;-77
2021/03/13 07:49:17;;;;;;;3.95;0.70;;;9.60;67.20;;;;;;6245426;23;20008;-77
2021/03/13 07:51:44;;;;;;;3.05;0.40;;;9.60;67.00;;;;;;6218694;23;20419;-76
2021/03/13 07:54:10;;;;;;;3.58;0.30;;;9.80;66.40;;;;;;6217898;23;20088;-76
2021/03/13 07:56:39;;;;;;;4.72;0.50;;;9.90;65.20;;;;;;6219014;23;20078;-77
2021/03/13 07:59:09;;;;;;;1.75;0.30;;;10.10;64.70;;;;;;6218443;23;20090;-78
2021/03/13 08:01:49;;;;;;;3.97;0.45;;;10.10;63.40;;;;;;6218827;23;20414;-78
2021/03/13 08:04:36;;;;;;;3.70;0.40;;;10.10;63.30;;;;;;6218386;23;20004;-77
2021/03/13 08:07:02;;;;;;;2.58;1.02;;;10.20;62.60;;;;;;6218124;23;20061;-77
2021/03/13 08:09:28;;;;;;;1.95;0.50;;;10.20;62.90;;;;;;6218736;23;20000;-77
2021/03/13 08:11:55;;;;;;;1.75;0.20;;;10.20;62.70;;;;;;6218948;23;20100;-77
2021/03/13 08:14:30;;;;;;;2.05;0.25;;;10.20;62.70;;;;;;6220659;23;20061;-78
2021/03/13 08:17:08;;;;;;;3.50;0.75;;;10.20;62.70;;;;;;6220035;23;20008;-77
2021/03/13 08:19:44;;;;;;;1.65;0.38;;;10.20;62.20;;;;;;6247246;23;20008;-77
2021/03/13 08:22:23;;;;;;;1.42;0.40;;;10.30;62.10;;;;;;6220156;23;20046;-77
2021/03/13 08:24:53;;;;;;;1.30;0.43;;;10.20;61.90;;;;;;6220380;23;20091;-77
2021/03/13 08:27:40;;;;;;;2.05;0.20;;;10.30;61.20;;;;;;6246798;23;20001;-78
2021/03/13 08:30:22;;;;;;;0.80;0.13;;;10.20;61.20;;;;;;6219514;23;20130;-78
2021/03/13 08:33:03;;;;;;;1.73;0.20;;;10.30;60.70;;;;;;6220725;23;20087;-77
2021/03/13 08:35:43;;;;;;;2.60;0.55;;;10.30;61.80;;;;;;6220469;23;20062;-77
2021/03/13 08:38:09;;;;;;;1.52;0.43;;;10.20;61.10;;;;;;6219967;23;20498;-77
2021/03/13 08:40:42;;;;;;;1.52;0.40;;;10.20;61.10;;;;;;6219555;23;20004;-77
2021/03/13 08:43:49;;;;;;;0.40;0.17;;;10.30;61.40;;;;;;6220287;23;20008;-77
2021/03/13 08:46:42;;;;;;;4.65;0.40;;;10.40;60.60;;;;;;6219739;23;20329;-77
2021/03/13 08:49:08;;;;;;;1.80;0.32;;;10.50;58.30;;;;;;6219677;23;20439;-77
2021/03/13 08:51:34;;;;;;;0.63;0.20;;;10.60;58.80;;;;;;6220174;23;20007;-78
2021/03/13 08:54:00;;;;;;;1.88;0.25;;;10.60;58.30;;;;;;6219442;23;20060;-77
2021/03/13 08:56:36;;;;;;;1.77;0.40;;;10.60;59.00;;;;;;6220065;23;20016;-78
2021/03/13 08:59:19;;;;;;;1.70;0.35;;;10.70;57.60;;;;;;6245690;23;20487;-78
2021/03/13 09:02:05;;;;;;;1.52;0.30;;;10.70;57.80;;;;;;6220070;23;20004;-80
2021/03/13 09:04:32;;;;;;;1.70;0.38;;;10.70;58.40;;;;;;6221415;23;20012;-79
2021/03/13 09:07:00;;;;;;;3.15;0.40;;;10.60;59.10;;;;;;6220425;23;20016;-80
2021/03/13 09:09:29;;;;;;;0.98;0.40;;;10.50;60.30;;;;;;6247667;23;20000;-78
2021/03/13 09:12:07;;;;;;;2.10;0.43;;;10.50;59.70;;;;;;6246950;23;20003;-79
2021/03/13 09:14:33;;;;;;;3.83;0.50;;;10.50;59.00;;;;;;6220753;23;20436;-78
2021/03/13 09:17:14;;;;;;;2.80;0.32;;;10.50;58.70;;;;;;6220124;23;20043;-79
2021/03/13 09:19:40;;;;;;;4.15;0.50;;;10.40;59.00;;;;;;6220474;23;20087;-78
2021/03/13 09:22:10;;;;;;;2.25;0.40;;;10.40;59.90;;;;;;6246452;23;20124;-78
2021/03/13 09:24:37;;;;;;;2.05;0.32;;;10.30;59.90;;;;;;6220888;23;20004;-77
2021/03/13 09:27:04;;;;;;;0.70;0.30;;;10.20;62.30;;;;;;6220898;23;20000;-79
2021/03/13 09:29:34;;;;;;;0.73;0.30;;;10.10;63.50;;;;;;6246870;23;20424;-79
2021/03/13 09:32:06;;;;;;;2.85;0.43;;;10.00;64.30;;;;;;6245757;23;19996;-78
2021/03/13 09:34:33;;;;;;;1.85;0.38;;;9.90;65.90;;;;;;6219936;23;20007;-77
2021/03/13 09:37:07;;;;;;;1.67;0.43;;;9.90;67.50;;;;;;6246612;23;20006;-77
2021/03/13 09:39:33;;;;;;;4.70;0.30;;;9.80;67.10;;;;;;6246249;23;20011;-78
2021/03/13 09:42:03;;;;;;;1.42;0.52;;;9.80;67.10;;;;;;6218865;23;20392;-77
2021/03/13 09:44:51;;;;;;;3.47;0.40;;;9.70;66.00;;;;;;6220616;23;20066;-80
2021/03/13 09:47:17;;;;;;;1.52;0.40;;;9.80;65.60;;;;;;6246814;23;20007;-79
2021/03/13 09:49:48;;;;;;;3.22;0.47;;;9.80;66.60;;;;;;6247256;23;20000;-79
2021/03/13 09:52:14;;;;;;;1.10;0.20;;;9.80;65.60;;;;;;6246758;23;20029;-79
2021/03/13 09:54:41;;;;;;;6.60;0.55;;;9.80;65.80;;;;;;6246682;23;20327;-82
2021/03/13 09:57:08;;;;;;;2.25;0.32;;;9.80;66.90;;;;;;6220429;23;20008;-82
2021/03/13 09:59:34;;;;;;;0.85;0.32;;;9.80;65.80;;;;;;6220607;23;20027;-81
2021/03/13 10:02:00;;;;;;;1.98;0.45;;;9.80;67.00;;;;;;6220453;23;19996;-81
2021/03/13 10:04:26;;;;;;;3.72;0.30;;;9.80;67.00;;;;;;6246451;23;20012;-80
2021/03/13 10:06:52;;;;;;;1.65;0.32;;;9.90;67.20;;;;;;6219997;23;20019;-81
2021/03/13 10:09:18;;;;;;;4.82;0.50;;;10.00;64.30;;;;;;6246125;23;20083;-81
2021/03/13 10:11:44;;;;;;;1.17;0.20;;;10.00;64.40;;;;;;6220833;23;20030;-81
2021/03/13 10:14:19;;;;;;;0.60;0.35;;;10.10;63.80;;;;;;6246111;23;20000;-81
2021/03/13 10:16:46;;;;;;;3.13;0.40;;;10.10;61.70;;;;;;6246913;23;20004;-82
2021/03/13 10:19:37;;;;;;;0.43;0.28;;;10.20;63.00;;;;;;6246405;23;20054;-81
2021/03/13 10:22:14;;;;;;;0.50;0.20;;;10.20;64.10;;;;;;6219434;23;20008;-81
2021/03/13 10:24:48;;;;;;;3.75;0.40;;;10.20;63.80;;;;;;6219282;23;20015;-78
2021/03/13 10:27:22;;;;;;;2.33;0.50;;;10.20;64.10;;;;;;6219089;23;20005;-77
2021/03/13 10:30:04;;;;;;;0.68;0.30;;;10.20;64.90;;;;;;6245690;23;20004;-77
2021/03/13 10:32:31;;;;;;;;;;;10.10;65.90;;;;;;6214121;23;20075;-80
2021/03/13 10:35:16;;;;;;;1.83;0.35;;;10.10;67.50;;;;;;6218030;23;19903;-85
2021/03/13 10:37:45;;;;;;;2.20;0.60;;;10.00;67.90;;;;;;6218401;23;20027;-80
2021/03/13 10:40:28;;;;;;;3.75;0.85;;;10.00;69.10;;;;;;6217540;23;20030;-79
2021/03/13 10:43:13;;;;;;;4.80;0.52;;;10.00;67.90;;;;;;6217915;23;20035;-77
2021/03/13 10:45:45;;;;;;;2.33;0.50;;;10.00;68.40;;;;;;6244304;23;20023;-79
2021/03/13 10:48:11;;;;;;;0.80;0.20;;;10.00;68.80;;;;;;6217904;23;20005;-76
2021/03/13 10:50:39;;;;;;;1.38;0.20;;;9.90;69.20;;;;;;6217833;23;20008;-77
2021/03/13 10:53:27;;;;;;;1.35;0.30;;;9.90;69.70;;;;;;6217394;23;20004;-76
2021/03/13 10:55:57;;;;;;;0.73;0.30;;;9.90;70.50;;;;;;6218817;23;20004;-79
2021/03/13 10:58:24;;;;;;;0.95;0.40;;;9.80;70.70;;;;;;6219559;23;20004;-80
2021/03/13 11:00:50;;;;;;;3.03;0.30;;;9.80;70.20;;;;;;6245982;23;19996;-76
2021/03/13 11:03:16;;;;;;;4.18;0.30;;;9.80;71.00;;;;;;6245461;23;20371;-78
2021/03/13 11:05:41;;;;;;;1.48;0.15;;;9.80;72.40;;;;;;6218355;23;20050;-74
2021/03/13 11:08:11;;;;;;;1.35;0.20;;;9.70;73.70;;;;;;6244795;23;20003;-75
2021/03/13 11:10:36;;;;;;;0.90;0.20;;;9.60;74.00;;;;;;6218280;23;20042;-75
2021/03/13 11:13:02;;;;;;;1.75;0.32;;;9.50;76.10;;;;;;6216889;23;20004;-75
2021/03/13 11:15:28;;;;;;;2.00;0.20;;;9.40;77.10;;;;;;6217991;23;20008;-73
2021/03/13 11:17:53;;;;;;;1.35;0.40;;;9.40;78.10;;;;;;6218228;23;20431;-76
2021/03/13 11:20:19;;;;;;;1.23;0.30;;;9.30;77.30;;;;;;6244190;23;20007;-76
2021/03/13 11:22:45;;;;;;;1.02;0.30;;;9.30;78.60;;;;;;6218876;23;20008;-76
2021/03/13 11:25:11;;;;;;;3.65;0.40;;;9.20;79.20;;;;;;6244992;23;20430;-77
2021/03/13 11:27:36;;;;;;;2.08;0.30;;;9.20;79.60;;;;;;6244888;23;19996;-77
2021/03/13 11:30:03;;;;;;;3.35;0.80;;;9.10;78.70;;;;;;6218061;23;20050;-76
2021/03/13 11:32:29;;;;;;;2.45;0.40;;;9.20;79.20;;;;;;6244783;23;20292;-73
2021/03/13 11:34:54;;;;;;;2.95;0.70;;;9.20;78.60;;;;;;6217366;23;20015;-74
2021/03/13 11:37:20;;;;;;;1.33;0.32;;;9.20;79.40;;;;;;6216867;23;20015;-75
2021/03/13 11:39:45;;;;;;;0.43;0.20;;;9.10;77.90;;;;;;6217593;23;20305;-75
2021/03/13 11:42:11;;;;;;;1.45;0.20;;;9.20;77.50;;;;;;6216897;23;20018;-73
2021/03/13 11:44:37;;;;;;;0.98;0.20;;;9.30;76.90;;;;;;6244326;23;20028;-74
2021/03/13 11:47:02;;;;;;;3.05;0.45;;;9.30;75.80;;;;;;6217124;23;20435;-74
2021/03/13 11:49:28;;;;;;;0.73;0.32;;;9.40;74.70;;;;;;6218256;23;20028;-74
2021/03/13 11:51:54;;;;;;;0.98;0.20;;;9.50;75.20;;;;;;6218356;23;20008;-75
2021/03/13 11:54:19;;;;;;;0.77;0.10;;;9.50;74.60;;;;;;6244529;23;19996;-75
2021/03/13 11:56:45;;;;;;;2.58;0.40;;;9.50;76.10;;;;;;6218233;23;20012;-75
2021/03/13 11:59:11;;;;;;;0.93;0.15;;;9.50;75.90;;;;;;6244665;23;20419;-76
2021/03/13 12:01:36;;;;;;;3.60;0.40;;;9.40;78.40;;;;;;6218419;23;20000;-72
2021/03/13 12:04:02;;;;;;;2.13;0.20;;;8.90;89.80;;;;;;6216470;23;20058;-73
2021/03/13 12:06:28;;;;;;;1.77;0.30;;;8.50;90.50;;;;;;6216317;23;20016;-73
2021/03/13 12:08:53;;;;;;;1.33;0.25;;;8.40;91.70;;;;;;6217225;23;20082;-74
2021/03/13 12:11:19;;;;;;;0.38;0.20;;;8.40;90.60;;;;;;6216141;23;20566;-73
2021/03/13 12:13:45;;;;;;;0.77;0.20;;;8.40;87.90;;;;;;6216856;23;20004;-73
2021/03/13 12:16:11;;;;;;;2.72;0.22;;;8.40;87.00;;;;;;6216412;23;20079;-72
2021/03/13 12:18:36;;;;;;;0.70;0.27;;;8.40;87.00;;;;;;6244428;23;20079;-73
2021/03/13 12:21:02;;;;;;;0.50;0.10;;;8.30;87.90;;;;;;6243663;23;20066;-73
2021/03/13 12:23:28;;;;;;;0.20;0.10;;;8.30;85.00;;;;;;6244496;23;19996;-72
2021/03/13 12:25:53;;;;;;;0.40;0.10;;;8.10;84.20;;;;;;6244059;23;20008;-72
2021/03/13 12:28:19;;;;;;;0.07;0.00;;;8.10;85.40;;;;;;6216992;23;20000;-72
2021/03/13 12:30:45;;;;;;;0.60;0.10;;;8.00;84.50;;;;;;6244193;23;19996;-73
2021/03/13 12:33:10;;;;;;;0.40;0.20;;;7.90;85.10;;;;;;6243188;23;20000;-73
2021/03/13 12:35:38;;;;;;;0.67;0.20;;;7.90;84.40;;;;;;6243976;23;20001;-73
2021/03/13 12:38:04;;;;;;;0.80;0.15;;;8.00;84.10;;;;;;6216898;23;20347;-73
2021/03/13 12:40:29;;;;;;;0.40;0.10;;;7.90;80.50;;;;;;6244194;23;20000;-73
2021/03/13 12:42:55;;;;;;;1.47;0.37;;;7.90;80.90;;;;;;6217285;23;20079;-72
2021/03/13 12:45:21;;;;;;;0.40;0.20;;;7.70;80.50;;;;;;6242448;23;20100;-74
2021/03/13 12:47:48;;;;;;;2.53;0.27;;;7.70;79.90;;;;;;6242293;23;20038;-73
2021/03/13 12:50:14;;;;;;;1.77;0.27;;;7.60;79.20;;;;;;6243180;23;20005;-73
2021/03/13 12:52:40;;;;;;;1.00;0.20;;;7.40;78.90;;;;;;6243474;23;20003;-73
2021/03/13 12:55:06;;;;;;;0.53;0.23;;;7.30;81.00;;;;;;6243317;23;20004;-72
2021/03/13 12:57:32;;;;;;;4.17;0.30;;;7.40;80.90;;;;;;6217260;23;20007;-72
2021/03/13 12:59:57;;;;;;;1.90;0.43;;;7.40;79.30;;;;;;6218768;23;20004;-72
2021/03/13 13:02:23;;;;;;;2.63;0.33;;;7.30;79.70;;;;;;6245232;23;20000;-72
2021/03/13 13:04:49;;;;;;;4.77;0.50;;;7.20;79.20;;;;;;6219248;23;20004;-72
2021/03/13 13:07:15;;;;;;;3.97;0.60;;;7.20;79.50;;;;;;6217982;23;20027;-71